createdAt,value
2019-02-22T00:02:11.885Z,70.24
2019-02-22T00:04:39.776Z,69.82
2019-02-22T00:07:07.834Z,70.15
2019-02-22T00:09:35.829Z,69.58
2019-02-22T00:12:03.177Z,69.32
2019-02-22T00:14:30.865Z,69.66
2019-02-22T00:16:58.559Z,69.87
2019-02-22T00:19:25.895Z,69.90
2019-02-22T00:21:53.730Z,70.96
2019-02-22T00:24:21.302Z,70.47
2019-02-22T00:26:48.694Z,70.03
2019-02-22T00:29:16.111Z,70.40
2019-02-22T00:31:43.479Z,70.04
2019-02-22T00:34:10.752Z,70.18
2019-02-22T00:36:38.597Z,69.83
2019-02-22T00:39:06.261Z,70.43
2019-02-22T00:41:33.892Z,70.23
2019-02-22T00:44:05.459Z,69.92
2019-02-22T00:46:33.054Z,69.94
2019-02-22T00:49:00.223Z,69.89
2019-02-22T00:51:27.519Z,69.76
2019-02-22T00:53:55.357Z,69.62
2019-02-22T00:56:22.921Z,70.21
2019-02-22T00:58:50.369Z,69.13
2019-02-22T01:01:17.958Z,69.41
2019-02-22T01:03:45.751Z,70.00
2019-02-22T01:06:13.378Z,69.82
2019-02-22T01:08:41.615Z,70.07
2019-02-22T01:11:09.516Z,69.85
2019-02-22T01:13:37.042Z,69.96
2019-02-22T01:16:04.178Z,70.11
2019-02-22T01:18:31.741Z,69.97
2019-02-22T01:20:59.523Z,69.87
2019-02-22T01:23:27.617Z,68.94
2019-02-22T01:25:59.020Z,69.60
2019-02-22T01:28:26.447Z,69.49
2019-02-22T01:30:53.863Z,69.91
2019-02-22T01:33:21.737Z,69.67
2019-02-22T01:35:49.119Z,69.98
2019-02-22T01:38:17.036Z,70.02
2019-02-22T01:40:44.650Z,69.49
2019-02-22T01:43:12.131Z,70.19
2019-02-22T01:45:39.407Z,70.05
2019-02-22T01:48:06.747Z,70.16
2019-02-22T01:50:34.410Z,69.98
2019-02-22T01:53:01.806Z,69.05
2019-02-22T01:55:29.514Z,70.01
2019-02-22T01:57:57.138Z,71.10
2019-02-22T02:00:25.079Z,70.61
2019-02-22T02:02:52.885Z,70.25
2019-02-22T02:05:20.450Z,70.39
2019-02-22T02:07:47.979Z,70.80
2019-02-22T02:10:15.861Z,71.50
2019-02-22T02:12:43.171Z,70.74
2019-02-22T02:15:11.191Z,71.10
2019-02-22T02:17:39.278Z,71.21
2019-02-22T02:20:07.349Z,71.19
2019-02-22T02:22:34.775Z,71.66
2019-02-22T02:25:03.448Z,71.24
2019-02-22T02:27:30.709Z,70.79
2019-02-22T02:29:57.990Z,71.13
2019-02-22T02:32:25.863Z,70.94
2019-02-22T02:34:54.109Z,71.42
2019-02-22T02:37:21.557Z,70.90
2019-02-22T02:39:49.074Z,70.57
2019-02-22T02:42:16.822Z,70.83
2019-02-22T02:44:44.347Z,71.24
2019-02-22T02:47:11.817Z,70.97
2019-02-22T02:49:39.561Z,71.21
2019-02-22T02:52:07.457Z,70.68
2019-02-22T02:54:35.316Z,71.00
2019-02-22T02:57:02.996Z,71.42
2019-02-22T02:59:30.811Z,71.19
2019-02-22T03:01:58.893Z,70.82
2019-02-22T03:04:26.288Z,71.61
2019-02-22T03:07:07.373Z,71.47
2019-02-22T03:09:35.606Z,71.40
2019-02-22T03:12:03.153Z,71.53
2019-02-22T03:14:30.584Z,71.66
2019-02-22T03:16:58.823Z,72.00
2019-02-22T03:19:26.439Z,71.30
2019-02-22T03:21:53.722Z,71.10
2019-02-22T03:24:21.664Z,71.63
2019-02-22T03:26:49.268Z,71.79
2019-02-22T03:29:16.674Z,71.99
2019-02-22T03:31:44.726Z,72.29
2019-02-22T03:34:12.260Z,72.07
2019-02-22T03:36:39.877Z,71.88
2019-02-22T03:39:07.483Z,72.17
2019-02-22T03:41:35.420Z,71.42
2019-02-22T03:44:02.764Z,70.89
2019-02-22T03:46:30.210Z,71.24
2019-02-22T03:48:58.086Z,70.91
2019-02-22T03:51:25.608Z,71.22
2019-02-22T03:53:59.876Z,71.17
2019-02-22T03:56:27.479Z,71.07
2019-02-22T03:58:55.383Z,71.02
2019-02-22T04:01:22.845Z,71.00
2019-02-22T04:03:50.290Z,70.78
2019-02-22T04:06:18.310Z,71.14
2019-02-22T04:08:45.688Z,70.83
2019-02-22T04:11:12.979Z,71.14
2019-02-22T04:13:40.823Z,71.01
2019-02-22T04:16:08.478Z,71.25
2019-02-22T04:18:36.885Z,71.67
2019-02-22T04:21:04.270Z,72.03
2019-02-22T04:23:31.777Z,71.43
2019-02-22T04:25:59.249Z,71.90
2019-02-22T04:28:26.746Z,72.14
2019-02-22T04:30:54.629Z,71.66
2019-02-22T04:33:22.836Z,71.20
2019-02-22T04:35:50.508Z,72.03
2019-02-22T04:38:18.170Z,72.00
2019-02-22T04:40:46.009Z,71.49
2019-02-22T04:43:13.835Z,71.18
2019-02-22T04:45:41.445Z,71.73
2019-02-22T04:48:09.288Z,71.46
2019-02-22T04:50:36.960Z,71.90
2019-02-22T04:53:04.785Z,71.57
2019-02-22T04:55:32.626Z,71.32
2019-02-22T04:58:00.497Z,71.48
2019-02-22T05:00:28.199Z,71.39
2019-02-22T05:02:55.699Z,71.15
2019-02-22T05:05:23.499Z,71.29
2019-02-22T05:07:51.605Z,71.58
2019-02-22T05:10:19.324Z,71.27
2019-02-22T05:12:47.128Z,71.66
2019-02-22T05:15:14.870Z,71.31
2019-02-22T05:17:42.903Z,71.58
2019-02-22T05:20:10.549Z,71.80
2019-02-22T05:22:38.840Z,72.65
2019-02-22T05:25:06.594Z,72.25
2019-02-22T05:27:34.416Z,72.25
2019-02-22T05:30:02.065Z,72.16
2019-02-22T05:32:29.575Z,71.95
2019-02-22T05:34:57.875Z,72.30
2019-02-22T05:37:25.641Z,72.07
2019-02-22T05:39:53.397Z,72.68
2019-02-22T05:42:23.199Z,72.33
2019-02-22T05:44:49.828Z,72.38
2019-02-22T05:47:17.629Z,72.55
2019-02-22T05:49:45.027Z,72.63
2019-02-22T05:52:12.899Z,72.26
2019-02-22T05:54:40.938Z,72.42
2019-02-22T05:57:08.355Z,71.94
2019-02-22T05:59:35.962Z,72.37
2019-02-22T06:02:03.601Z,72.02
2019-02-22T06:04:31.354Z,72.18
2019-02-22T06:06:59.037Z,72.41
2019-02-22T06:09:26.154Z,72.14
2019-02-22T06:11:53.693Z,72.34
2019-02-22T06:14:21.796Z,72.70
2019-02-22T06:16:49.414Z,72.55
2019-02-22T06:19:16.838Z,72.62
2019-02-22T06:21:44.569Z,72.47
2019-02-22T06:24:12.410Z,72.66
2019-02-22T06:26:40.537Z,72.96
2019-02-22T06:29:08.604Z,72.58
2019-02-22T06:31:35.922Z,73.07
2019-02-22T06:34:04.265Z,73.04
2019-02-22T06:36:32.075Z,72.85
2019-02-22T06:38:59.823Z,72.53
2019-02-22T06:41:27.643Z,72.20
2019-02-22T06:43:55.375Z,73.35
2019-02-22T06:46:22.890Z,72.35
2019-02-22T06:48:50.459Z,73.38
2019-02-22T06:51:18.039Z,72.31
2019-02-22T06:53:45.229Z,72.30
2019-02-22T06:56:12.752Z,71.85
2019-02-22T06:58:40.462Z,72.08
2019-02-22T07:01:07.711Z,71.95
2019-02-22T07:03:35.586Z,72.25
2019-02-22T07:06:05.722Z,71.85
2019-02-22T07:08:33.236Z,71.86
2019-02-22T07:11:23.617Z,72.03
2019-02-22T07:13:50.989Z,72.35
2019-02-22T07:16:18.867Z,72.10
2019-02-22T07:18:46.017Z,72.09
2019-02-22T07:21:13.576Z,72.05
2019-02-22T07:23:41.544Z,72.04
2019-02-22T07:26:09.047Z,72.35
2019-02-22T07:28:36.901Z,72.42
2019-02-22T07:31:04.884Z,72.03
2019-02-22T07:33:32.475Z,72.46
2019-02-22T07:35:59.948Z,72.19
2019-02-22T07:38:27.205Z,72.11
2019-02-22T07:40:54.311Z,71.65
2019-02-22T07:43:21.975Z,71.85
2019-02-22T07:45:49.610Z,71.91
2019-02-22T07:48:17.045Z,71.53
2019-02-22T07:50:56.558Z,71.51
2019-02-22T07:53:14.513Z,71.34
2019-02-22T07:55:42.466Z,71.19
2019-02-22T07:58:10.049Z,71.01
2019-02-22T08:00:37.824Z,71.09
2019-02-22T08:03:05.482Z,71.09
2019-02-22T08:05:32.947Z,70.91
2019-02-22T08:08:00.372Z,70.69
2019-02-22T08:10:27.858Z,70.20
2019-02-22T08:12:55.974Z,70.17
2019-02-22T08:15:23.260Z,69.95
2019-02-22T08:17:50.974Z,69.90
2019-02-22T08:20:18.483Z,69.66
2019-02-22T08:22:46.320Z,69.38
2019-02-22T08:25:14.236Z,68.93
2019-02-22T08:27:52.709Z,68.66
2019-02-22T08:30:11.997Z,68.32
2019-02-22T08:32:39.570Z,67.81
2019-02-22T08:35:07.761Z,67.53
2019-02-22T08:37:35.342Z,67.41
2019-02-22T08:40:04.284Z,66.64
2019-02-22T08:42:31.582Z,66.91
2019-02-22T08:44:59.486Z,66.67
2019-02-22T08:47:26.801Z,65.99
2019-02-22T08:49:53.984Z,65.81
2019-02-22T08:52:21.509Z,65.50
2019-02-22T08:54:49.216Z,66.02
2019-02-22T08:57:16.851Z,65.68
2019-02-22T08:59:44.478Z,64.94
2019-02-22T09:02:12.614Z,64.66
2019-02-22T09:04:40.148Z,64.26
2019-02-22T09:07:07.323Z,63.99
2019-02-22T09:09:34.912Z,63.59
2019-02-22T09:12:05.616Z,63.05
2019-02-22T09:14:33.008Z,62.46
2019-02-22T09:17:00.311Z,62.80
2019-02-22T09:19:27.671Z,61.53
2019-02-22T09:21:55.072Z,62.82
2019-02-22T09:24:23.013Z,63.08
2019-02-22T09:26:51.129Z,63.25
2019-02-22T09:29:18.539Z,63.01
2019-02-22T09:31:46.114Z,60.78
2019-02-22T09:34:14.140Z,62.09
2019-02-22T09:36:42.129Z,60.49
2019-02-22T09:39:09.405Z,56.45
2019-02-22T09:41:37.483Z,54.81
2019-02-22T09:44:05.362Z,55.93
2019-02-22T09:46:32.781Z,58.54
2019-02-22T09:49:00.819Z,54.97
2019-02-22T09:51:28.020Z,53.34
2019-02-22T09:53:56.304Z,53.97
2019-02-22T09:56:24.447Z,54.34
2019-02-22T09:58:52.016Z,52.82
2019-02-22T10:01:19.248Z,52.96
2019-02-22T10:03:47.379Z,49.79
2019-02-22T10:06:15.454Z,50.25
2019-02-22T10:08:43.022Z,48.06
2019-02-22T10:11:10.443Z,51.15
2019-02-22T10:13:38.367Z,50.81
2019-02-22T10:16:06.145Z,47.88
2019-02-22T10:18:33.777Z,47.02
2019-02-22T10:21:01.036Z,49.81
2019-02-22T10:23:28.490Z,49.62
2019-02-22T10:25:55.720Z,43.97
2019-02-22T10:28:23.299Z,48.05
2019-02-22T10:30:50.893Z,48.34
2019-02-22T10:33:18.173Z,48.13
2019-02-22T10:35:46.511Z,48.44
2019-02-22T10:38:14.319Z,48.32
2019-02-22T10:40:41.747Z,47.73
2019-02-22T10:43:09.398Z,50.18
2019-02-22T10:45:37.100Z,50.10
2019-02-22T10:48:04.775Z,50.41
2019-02-22T10:50:32.351Z,49.95
2019-02-22T10:53:02.365Z,49.88
2019-02-22T10:55:29.432Z,49.86
2019-02-22T10:57:56.742Z,50.15
2019-02-22T11:00:25.173Z,50.94
2019-02-22T11:02:52.806Z,50.39
2019-02-22T11:05:20.043Z,51.92
2019-02-22T11:07:47.976Z,52.61
2019-02-22T11:10:15.731Z,52.45
2019-02-22T11:12:43.874Z,50.99
2019-02-22T11:15:11.662Z,51.16
2019-02-22T11:17:39.567Z,50.98
2019-02-22T11:20:08.426Z,50.95
2019-02-22T11:22:35.938Z,52.36
2019-02-22T11:25:05.325Z,51.81
2019-02-22T11:27:32.921Z,52.54
2019-02-22T11:30:00.540Z,52.05
2019-02-22T11:32:28.287Z,52.41
2019-02-22T11:34:55.915Z,52.40
2019-02-22T11:37:23.459Z,52.42
2019-02-22T11:39:50.880Z,51.34
2019-02-22T11:42:18.326Z,53.25
2019-02-22T11:44:46.451Z,52.40
2019-02-22T11:47:14.298Z,53.96
2019-02-22T11:49:41.518Z,52.13
2019-02-22T11:52:09.039Z,52.74
2019-02-22T11:54:36.966Z,52.49
2019-02-22T11:57:05.238Z,52.34
2019-02-22T11:59:32.973Z,53.16
2019-02-22T12:02:01.005Z,53.43
2019-02-22T12:04:28.283Z,52.41
2019-02-22T12:06:55.812Z,52.52
2019-02-22T12:09:23.884Z,52.71
2019-02-22T12:11:51.569Z,52.27
2019-02-22T12:14:19.917Z,52.03
2019-02-22T12:16:50.150Z,53.40
2019-02-22T12:19:17.711Z,53.27
2019-02-22T12:21:45.031Z,53.21
2019-02-22T12:24:12.265Z,54.17
2019-02-22T12:26:39.941Z,53.98
2019-02-22T12:29:07.715Z,53.60
2019-02-22T12:31:35.736Z,53.33
2019-02-22T12:34:03.573Z,52.97
2019-02-22T12:36:31.318Z,53.23
2019-02-22T12:38:59.114Z,53.03
2019-02-22T12:41:26.798Z,51.58
2019-02-22T12:43:54.375Z,52.23
2019-02-22T12:46:22.011Z,52.73
2019-02-22T12:48:49.646Z,51.85
2019-02-22T12:51:17.449Z,50.79
2019-02-22T12:53:45.036Z,51.76
2019-02-22T12:56:12.782Z,52.06
2019-02-22T12:58:40.709Z,52.32
2019-02-22T13:01:08.133Z,52.28
2019-02-22T13:03:35.447Z,51.49
2019-02-22T13:06:03.280Z,50.96
2019-02-22T13:08:31.470Z,51.15
2019-02-22T13:10:59.687Z,50.21
2019-02-22T13:13:27.554Z,49.65
2019-02-22T13:15:55.543Z,49.92
2019-02-22T13:18:23.373Z,50.21
2019-02-22T13:20:53.178Z,49.73
2019-02-22T13:23:20.174Z,49.92
2019-02-22T13:25:47.537Z,50.46
2019-02-22T13:28:15.112Z,50.20
2019-02-22T13:30:42.687Z,51.39
2019-02-22T13:33:09.785Z,49.98
2019-02-22T13:35:37.523Z,50.56
2019-02-22T13:38:05.575Z,52.04
2019-02-22T13:40:33.628Z,50.63
2019-02-22T13:43:01.465Z,50.98
2019-02-22T13:45:28.708Z,51.45
2019-02-22T13:47:56.516Z,51.63
2019-02-22T13:50:24.304Z,51.60
2019-02-22T13:52:51.892Z,51.57
2019-02-22T13:55:19.779Z,50.95
2019-02-22T13:57:47.469Z,50.36
2019-02-22T14:00:16.539Z,50.56
2019-02-22T14:02:43.935Z,51.25
2019-02-22T14:05:12.052Z,49.35
2019-02-22T14:07:49.782Z,49.70
2019-02-22T14:10:18.091Z,50.29
2019-02-22T14:12:45.721Z,50.97
2019-02-22T14:15:13.944Z,50.05
2019-02-22T14:17:42.065Z,50.32
2019-02-22T14:20:10.347Z,50.47
2019-02-22T14:22:38.031Z,50.33
2019-02-22T14:25:05.858Z,49.78
2019-02-22T14:27:33.145Z,51.63
2019-02-22T14:30:00.426Z,50.53
2019-02-22T14:32:28.413Z,50.84
2019-02-22T14:34:56.232Z,50.30
2019-02-22T14:37:23.815Z,50.09
2019-02-22T14:40:02.345Z,50.81
2019-02-22T14:42:21.410Z,51.74
2019-02-22T14:44:49.353Z,50.57
2019-02-22T14:47:17.472Z,50.91
2019-02-22T14:49:44.982Z,51.35
2019-02-22T14:52:12.843Z,51.70
2019-02-22T14:54:40.498Z,51.58
2019-02-22T14:57:08.178Z,52.41
2019-02-22T14:59:35.683Z,52.34
2019-02-22T15:02:03.568Z,53.01
2019-02-22T15:04:31.681Z,51.43
2019-02-22T15:06:59.829Z,51.29
2019-02-22T15:09:27.324Z,51.63
2019-02-22T15:11:54.876Z,52.33
2019-02-22T15:14:23.512Z,52.36
2019-02-22T15:17:03.184Z,52.37
2019-02-22T15:19:31.425Z,51.68
2019-02-22T15:22:01.028Z,52.74
2019-02-22T15:24:27.788Z,52.25
2019-02-22T15:26:58.254Z,52.35
2019-02-22T15:29:26.041Z,53.19
2019-02-22T15:31:55.118Z,52.90
2019-02-22T15:34:22.664Z,53.48
2019-02-22T15:36:50.643Z,53.04
2019-02-22T15:39:18.087Z,53.40
2019-02-22T15:41:45.654Z,53.79
2019-02-22T15:44:13.212Z,54.05
2019-02-22T15:46:40.639Z,54.11
2019-02-22T15:49:08.012Z,54.20
2019-02-22T15:51:35.666Z,53.65
2019-02-22T15:54:03.157Z,54.08
2019-02-22T15:56:31.123Z,54.61
2019-02-22T15:58:58.841Z,53.90
2019-02-22T16:01:26.747Z,55.01
2019-02-22T16:03:59.709Z,54.15
2019-02-22T16:06:27.310Z,55.20
2019-02-22T16:08:54.682Z,55.35
2019-02-22T16:11:22.010Z,55.37
2019-02-22T16:13:50.449Z,55.40
2019-02-22T16:16:23.120Z,55.76
2019-02-22T16:18:47.786Z,55.98
2019-02-22T16:21:15.493Z,56.13
2019-02-22T16:23:43.175Z,56.95
2019-02-22T16:26:11.314Z,57.08
2019-02-22T16:28:38.958Z,57.27
2019-02-22T16:31:06.889Z,57.60
2019-02-22T16:33:34.616Z,57.75
2019-02-22T16:36:02.419Z,57.71
2019-02-22T16:38:29.686Z,57.83
2019-02-22T16:40:56.929Z,58.07
2019-02-22T16:43:24.094Z,58.63
2019-02-22T16:45:54.639Z,58.89
2019-02-22T16:48:22.352Z,59.80
2019-02-22T16:50:50.031Z,60.12
2019-02-22T16:53:17.818Z,60.18
2019-02-22T16:55:45.304Z,60.51
2019-02-22T16:58:12.927Z,61.05
2019-02-22T17:00:40.326Z,61.12
2019-02-22T17:03:08.275Z,61.77
2019-02-22T17:05:36.059Z,62.04
2019-02-22T17:08:03.473Z,62.45
2019-02-22T17:10:31.235Z,62.97
2019-02-22T17:12:58.682Z,63.02
2019-02-22T17:15:25.804Z,63.63
2019-02-22T17:17:53.823Z,63.75
2019-02-22T17:20:20.927Z,64.07
2019-02-22T17:22:48.872Z,64.43
2019-02-22T17:25:16.283Z,64.57
2019-02-22T17:27:44.159Z,64.71
2019-02-22T17:30:15.761Z,65.17
2019-02-22T17:32:43.142Z,65.42
2019-02-22T17:35:11.109Z,65.87
2019-02-22T17:37:38.512Z,66.14
2019-02-22T17:40:10.342Z,66.58
2019-02-22T17:42:38.379Z,66.73
2019-02-22T17:45:06.169Z,67.47
2019-02-22T17:47:33.681Z,67.73
2019-02-22T17:50:00.858Z,67.66
2019-02-22T17:52:28.379Z,68.32
2019-02-22T17:54:55.822Z,68.65
2019-02-22T17:57:23.611Z,69.32
2019-02-22T17:59:58.009Z,68.60
2019-02-22T18:02:29.406Z,70.52
2019-02-22T18:04:56.989Z,70.46
2019-02-22T18:07:24.547Z,70.20
2019-02-22T18:09:52.752Z,69.59
2019-02-22T18:12:22.758Z,69.77
2019-02-22T18:14:50.050Z,70.25
2019-02-22T18:17:17.424Z,69.70
2019-02-22T18:19:44.916Z,69.50
2019-02-22T18:22:12.343Z,69.46
2019-02-22T18:24:39.763Z,70.15
2019-02-22T18:27:08.401Z,70.32
2019-02-22T18:29:36.797Z,71.32
2019-02-22T18:32:04.316Z,70.44
2019-02-22T18:34:31.738Z,70.08
2019-02-22T18:36:59.281Z,69.49
2019-02-22T18:39:26.961Z,70.48
2019-02-22T18:41:54.685Z,70.49
2019-02-22T18:44:22.737Z,70.38
2019-02-22T18:46:50.256Z,70.22
2019-02-22T18:49:17.994Z,70.18
2019-02-22T18:51:45.777Z,70.63
2019-02-22T18:54:13.733Z,71.13
2019-02-22T18:56:41.570Z,71.52
2019-02-22T18:59:09.007Z,73.21
2019-02-22T19:01:36.682Z,74.43
2019-02-22T19:04:04.365Z,73.28
2019-02-22T19:06:31.930Z,74.91
2019-02-22T19:08:59.534Z,73.55
2019-02-22T19:11:26.823Z,73.53
2019-02-22T19:13:53.987Z,73.46
2019-02-22T19:16:21.238Z,73.45
2019-02-22T19:18:48.965Z,74.55
2019-02-22T19:21:16.684Z,71.97
2019-02-22T19:23:44.445Z,73.08
2019-02-22T19:26:12.431Z,72.68
2019-02-22T19:28:40.516Z,72.25
2019-02-22T19:31:08.698Z,71.76
2019-02-22T19:33:35.975Z,71.95
2019-02-22T19:36:03.656Z,71.60
2019-02-22T19:38:31.084Z,71.54
2019-02-22T19:40:58.887Z,71.42
2019-02-22T19:43:26.454Z,72.00
2019-02-22T19:45:54.291Z,74.10
2019-02-22T19:48:21.733Z,73.34
2019-02-22T19:50:49.838Z,72.14
2019-02-22T19:53:21.517Z,71.93
2019-02-22T19:56:15.975Z,72.05
2019-02-22T19:58:44.533Z,73.16
2019-02-22T20:01:16.023Z,72.01
2019-02-22T20:03:44.139Z,72.65
2019-02-22T20:06:15.297Z,72.38
2019-02-22T20:08:44.304Z,74.26
2019-02-22T20:11:26.571Z,73.01
2019-02-22T20:13:55.050Z,74.72
2019-02-22T20:16:23.106Z,75.00
2019-02-22T20:18:53.676Z,73.93
2019-02-22T20:21:22.152Z,74.38
2019-02-22T20:23:50.856Z,75.29
2019-02-22T20:26:19.625Z,78.52
2019-02-22T20:28:49.028Z,78.89
2019-02-22T20:31:35.495Z,78.04
2019-02-22T20:34:30.500Z,77.62
2019-02-22T20:37:20.169Z,77.40
2019-02-22T20:39:52.115Z,77.90
2019-02-22T20:46:09.659Z,75.47
2019-02-22T20:48:38.944Z,78.40
2019-02-22T20:51:07.291Z,77.71
2019-02-22T20:53:42.580Z,78.82
2019-02-22T20:56:14.672Z,77.71
2019-02-22T20:58:43.149Z,77.35
2019-02-22T21:01:24.825Z,78.72
2019-02-22T21:03:48.973Z,77.79
2019-02-22T21:06:18.774Z,76.19
2019-02-22T21:08:47.100Z,78.52
2019-02-22T21:11:15.197Z,78.22
2019-02-22T21:13:43.749Z,77.58
2019-02-22T21:16:12.053Z,78.33
2019-02-22T21:18:40.654Z,77.16
2019-02-22T21:21:08.734Z,79.40
2019-02-22T21:23:37.320Z,80.32
2019-02-22T21:26:05.886Z,80.85
2019-02-22T21:28:34.546Z,82.35
2019-02-22T21:31:03.264Z,82.30
2019-02-22T21:33:39.576Z,82.20
2019-02-22T21:36:57.391Z,80.23
2019-02-22T21:39:19.763Z,79.32
2019-02-22T21:42:21.348Z,80.52
2019-02-22T21:45:06.598Z,79.73
2019-02-22T21:48:07.145Z,79.94
2019-02-22T21:50:54.831Z,80.87
2019-02-22T21:53:25.206Z,79.67
2019-02-22T21:56:04.272Z,79.18
2019-02-22T21:59:09.096Z,80.18
2019-02-22T22:01:47.845Z,80.85
2019-02-22T22:04:13.196Z,81.34
2019-02-22T22:06:42.352Z,79.65
2019-02-22T22:09:21.633Z,80.45
2019-02-22T22:11:53.574Z,81.60
2019-02-22T22:14:26.109Z,80.66
2019-02-22T22:17:08.333Z,81.85
2019-02-22T22:19:34.913Z,81.67
2019-02-22T22:22:03.225Z,80.94
2019-02-22T22:24:51.519Z,82.34
2019-02-22T22:27:20.097Z,81.46
2019-02-22T22:29:48.204Z,81.81
2019-02-22T22:32:18.392Z,82.33
2019-02-22T22:34:46.979Z,81.45
2019-02-22T22:37:15.811Z,82.78
2019-02-22T22:39:44.146Z,82.45
2019-02-22T22:42:12.455Z,82.06
2019-02-22T22:44:40.405Z,83.09
2019-02-22T22:47:08.445Z,83.07
2019-02-22T22:49:36.647Z,82.26
2019-02-22T22:52:05.230Z,81.53
2019-02-22T22:54:33.656Z,81.83
2019-02-22T22:57:01.814Z,81.79
2019-02-22T22:59:30.263Z,82.30
2019-02-22T23:01:58.644Z,81.50
2019-02-22T23:04:27.330Z,80.83
2019-02-22T23:06:55.789Z,81.54
2019-02-22T23:09:24.603Z,82.41
2019-02-22T23:11:53.322Z,81.85
2019-02-22T23:14:24.042Z,83.39
2019-02-22T23:16:52.125Z,83.75
2019-02-22T23:19:20.263Z,81.47
2019-02-22T23:21:48.371Z,82.41
2019-02-22T23:24:17.465Z,82.00
2019-02-22T23:26:46.224Z,82.74
2019-02-22T23:29:14.631Z,81.77
2019-02-22T23:31:42.784Z,82.38
2019-02-22T23:34:10.825Z,82.57
2019-02-22T23:36:39.039Z,82.91
2019-02-22T23:39:08.658Z,83.23
2019-02-22T23:41:37.218Z,83.36
2019-02-22T23:44:05.468Z,82.56
2019-02-22T23:46:33.867Z,81.32
2019-02-22T23:49:12.613Z,82.59
2019-02-22T23:51:32.358Z,83.37
2019-02-22T23:54:00.640Z,81.80
2019-02-22T23:56:29.932Z,82.18
2019-02-22T23:58:58.345Z,81.96
